createdAt,value
2018-04-20T00:01:08.095Z,95869.16
2018-04-20T00:03:36.348Z,95878.66
2018-04-20T00:06:04.594Z,95874.81
2018-04-20T00:08:33.608Z,95865.56
2018-04-20T00:11:02.631Z,95861.97
2018-04-20T00:13:30.892Z,95860.13
2018-04-20T00:15:59.145Z,95862.02
2018-04-20T00:18:27.398Z,95859.77
2018-04-20T00:20:55.665Z,95862.02
2018-04-20T00:23:23.902Z,95861.61
2018-04-20T00:25:52.168Z,95852.20
2018-04-20T00:28:20.408Z,95850.05
2018-04-20T00:30:48.659Z,95856.21
2018-04-20T00:33:16.903Z,95846.45
2018-04-20T00:35:45.171Z,95843.69
2018-04-20T00:38:13.415Z,95845.04
2018-04-20T00:40:41.667Z,95847.02
2018-04-20T00:43:10.689Z,95836.36
2018-04-20T00:45:38.935Z,95836.20
2018-04-20T00:48:07.966Z,95837.55
2018-04-20T00:50:36.763Z,95837.61
2018-04-20T00:53:05.017Z,95834.58
2018-04-20T00:55:34.932Z,95830.30
2018-04-20T00:58:03.959Z,95829.56
2018-04-20T01:00:32.200Z,95827.52
2018-04-20T01:03:01.271Z,95825.09
2018-04-20T01:05:29.463Z,95828.74
2018-04-20T01:07:57.719Z,95828.42
2018-04-20T01:10:25.961Z,95836.13
2018-04-20T01:12:54.221Z,95830.98
2018-04-20T01:15:23.222Z,95826.74
2018-04-20T01:17:52.269Z,95834.71
2018-04-20T01:20:20.496Z,95827.77
2018-04-20T01:22:49.512Z,95835.43
2018-04-20T01:25:17.753Z,95830.59
2018-04-20T01:27:46.015Z,95836.28
2018-04-20T01:30:14.252Z,95832.87
2018-04-20T01:32:42.506Z,95834.74
2018-04-20T01:35:11.518Z,95833.91
2018-04-20T01:37:41.250Z,95833.24
2018-04-20T01:40:09.536Z,95826.67
2018-04-20T01:42:38.859Z,95821.04
2018-04-20T01:45:07.105Z,95831.61
2018-04-20T01:47:35.351Z,95827.05
2018-04-20T01:50:03.598Z,95822.08
2018-04-20T01:52:31.862Z,95821.25
2018-04-20T01:55:00.108Z,95815.98
2018-04-20T01:57:29.127Z,95817.20
2018-04-20T01:59:57.367Z,95817.28
2018-04-20T02:02:25.618Z,95815.40
2018-04-20T02:04:53.862Z,95816.81
2018-04-20T02:07:22.126Z,95816.13
2018-04-20T02:09:51.144Z,95812.91
2018-04-20T02:12:19.403Z,95804.70
2018-04-20T02:14:48.411Z,95811.73
2018-04-20T02:17:17.426Z,95811.02
2018-04-20T02:19:46.295Z,95810.22
2018-04-20T02:22:15.323Z,95805.22
2018-04-20T02:24:43.584Z,95810.73
2018-04-20T02:27:12.606Z,95810.68
2018-04-20T02:29:40.852Z,95805.73
2018-04-20T02:32:09.867Z,95805.25
2018-04-20T02:34:38.119Z,95805.58
2018-04-20T02:37:07.148Z,95804.52
2018-04-20T02:39:35.391Z,95803.33
2018-04-20T02:42:03.709Z,95798.92
2018-04-20T02:44:31.988Z,95795.09
2018-04-20T02:47:00.989Z,95796.02
2018-04-20T02:49:29.248Z,95796.48
2018-04-20T02:51:58.251Z,95792.77
2018-04-20T02:54:27.275Z,95797.98
2018-04-20T02:56:55.532Z,95793.84
2018-04-20T02:59:24.555Z,95782.20
2018-04-20T03:01:52.796Z,95782.39
2018-04-20T03:04:21.815Z,95780.95
2018-04-20T03:06:50.841Z,95780.21
2018-04-20T03:09:19.095Z,95778.32
2018-04-20T03:11:47.355Z,95776.48
2018-04-20T03:14:16.375Z,95775.56
2018-04-20T03:16:44.639Z,95770.13
2018-04-20T03:19:13.658Z,95770.84
2018-04-20T03:21:41.908Z,95774.33
2018-04-20T03:24:10.162Z,95769.36
2018-04-20T03:26:38.403Z,95765.13
2018-04-20T03:29:06.659Z,95767.58
2018-04-20T03:31:35.668Z,95767.61
2018-04-20T03:34:03.927Z,95773.90
2018-04-20T03:36:32.938Z,95768.80
2018-04-20T03:39:01.958Z,95758.84
2018-04-20T03:41:30.199Z,95766.84
2018-04-20T03:43:59.235Z,95763.78
2018-04-20T03:46:27.491Z,95763.82
2018-04-20T03:48:56.596Z,95770.39
2018-04-20T03:51:24.852Z,95765.79
2018-04-20T03:53:53.120Z,95766.33
2018-04-20T03:56:21.395Z,95760.73
2018-04-20T03:58:49.634Z,95766.20
2018-04-20T04:01:17.884Z,95765.98
2018-04-20T04:03:46.927Z,95765.57
2018-04-20T04:06:15.189Z,95767.40
2018-04-20T04:08:43.743Z,95773.14
2018-04-20T04:11:12.768Z,95767.45
2018-04-20T04:13:41.018Z,95764.56
2018-04-20T04:16:09.324Z,95769.66
2018-04-20T04:18:55.392Z,95767.76
2018-04-20T04:21:36.925Z,95767.98
2018-04-20T04:24:23.051Z,95769.09
2018-04-20T04:27:10.698Z,95772.61
2018-04-20T04:29:40.957Z,95775.77
2018-04-20T04:32:09.191Z,95776.31
2018-04-20T04:34:38.213Z,95770.87
2018-04-20T04:37:06.450Z,95776.00
2018-04-20T04:39:34.704Z,95776.36
2018-04-20T04:42:02.952Z,95782.87
2018-04-20T04:44:31.220Z,95783.11
2018-04-20T04:47:00.258Z,95785.66
2018-04-20T04:49:28.501Z,95783.41
2018-04-20T04:51:57.507Z,95775.62
2018-04-20T04:54:25.769Z,95779.74
2018-04-20T04:56:54.773Z,95781.88
2018-04-20T04:59:23.790Z,95788.37
2018-04-20T05:01:52.026Z,95789.06
2018-04-20T05:04:20.302Z,95792.91
2018-04-20T05:06:48.543Z,95792.57
2018-04-20T05:09:16.793Z,95791.11
2018-04-20T05:11:47.087Z,95788.09
2018-04-20T05:14:15.340Z,95789.98
2018-04-20T05:16:43.579Z,95794.19
2018-04-20T05:19:12.603Z,95793.75
2018-04-20T05:21:40.858Z,95794.92
2018-04-20T05:24:09.863Z,95796.09
2018-04-20T05:26:38.126Z,95785.53
2018-04-20T05:29:07.130Z,95790.34
2018-04-20T05:31:36.155Z,95783.11
2018-04-20T05:34:04.397Z,95781.94
2018-04-20T05:36:33.427Z,95786.61
2018-04-20T05:39:01.675Z,95782.98
2018-04-20T05:41:30.712Z,95775.62
2018-04-20T05:43:58.963Z,95776.13
2018-04-20T05:46:27.991Z,95783.33
2018-04-20T05:48:56.243Z,95777.70
2018-04-20T05:51:25.305Z,95774.89
2018-04-20T05:53:54.042Z,95773.44
2018-04-20T05:56:22.316Z,95767.70
2018-04-20T05:58:51.336Z,95762.78
2018-04-20T06:01:20.594Z,95766.30
2018-04-20T06:03:48.804Z,95766.15
2018-04-20T06:06:17.035Z,95759.45
2018-04-20T06:08:45.307Z,95756.77
2018-04-20T06:11:13.576Z,95756.34
2018-04-20T06:13:41.834Z,95753.28
2018-04-20T06:16:10.100Z,95748.83
2018-04-20T06:18:38.353Z,95750.99
2018-04-20T06:21:06.619Z,95748.55
2018-04-20T06:23:34.894Z,95752.01
2018-04-20T06:26:03.159Z,95756.63
2018-04-20T06:28:31.414Z,95755.06
2018-04-20T06:30:59.683Z,95754.22
2018-04-20T06:33:27.935Z,95747.05
2018-04-20T06:35:56.199Z,95752.94
2018-04-20T06:38:24.455Z,95752.80
2018-04-20T06:40:52.723Z,95753.19
2018-04-20T06:43:20.998Z,95756.05
2018-04-20T06:45:49.260Z,95753.57
2018-04-20T06:48:18.282Z,95750.86
2018-04-20T06:50:46.555Z,95754.41
2018-04-20T06:53:14.808Z,95753.94
2018-04-20T06:55:43.845Z,95756.30
2018-04-20T06:58:12.211Z,95755.23
2018-04-20T07:00:40.471Z,95745.99
2018-04-20T07:03:09.494Z,95753.62
2018-04-20T07:05:39.086Z,95751.75
2018-04-20T07:08:08.111Z,95744.01
2018-04-20T07:10:36.383Z,95745.26
2018-04-20T07:13:04.635Z,95750.50
2018-04-20T07:15:33.676Z,95741.70
2018-04-20T07:18:01.927Z,95742.40
2018-04-20T07:20:30.192Z,95745.20
2018-04-20T07:22:59.224Z,95741.03
2018-04-20T07:25:27.484Z,95739.80
2018-04-20T07:27:55.741Z,95745.34
2018-04-20T07:30:24.771Z,95745.67
2018-04-20T07:32:53.018Z,95745.83
2018-04-20T07:35:21.336Z,95749.59
2018-04-20T07:37:49.589Z,95752.91
2018-04-20T07:40:18.724Z,95750.77
2018-04-20T07:42:46.980Z,95745.14
2018-04-20T07:45:16.004Z,95747.98
2018-04-20T07:47:44.271Z,95748.84
2018-04-20T07:50:12.540Z,95748.23
2018-04-20T07:52:41.567Z,95752.39
2018-04-20T07:55:09.819Z,95755.94
2018-04-20T07:57:38.847Z,95760.83
2018-04-20T08:00:07.100Z,95757.57
2018-04-20T08:02:36.118Z,95759.42
2018-04-20T08:05:04.382Z,95759.77
2018-04-20T08:07:32.650Z,95761.48
2018-04-20T08:10:01.663Z,95761.76
2018-04-20T08:12:29.933Z,95761.87
2018-04-20T08:14:58.950Z,95759.77
2018-04-20T08:17:27.207Z,95751.62
2018-04-20T08:19:56.224Z,95752.38
2018-04-20T08:22:24.492Z,95753.80
2018-04-20T08:24:53.507Z,95753.50
2018-04-20T08:27:21.775Z,95755.31
2018-04-20T08:29:50.051Z,95754.69
2018-04-20T08:32:19.075Z,95752.84
2018-04-20T08:34:47.332Z,95756.61
2018-04-20T08:37:15.596Z,95753.78
2018-04-20T08:39:44.619Z,95753.67
2018-04-20T08:42:12.882Z,95743.47
2018-04-20T08:44:41.907Z,95747.09
2018-04-20T08:47:10.159Z,95749.08
2018-04-20T08:49:39.179Z,95750.47
2018-04-20T08:52:07.442Z,95744.44
2018-04-20T08:54:36.473Z,95745.48
2018-04-20T08:57:04.797Z,95749.43
2018-04-20T08:59:32.993Z,95741.72
2018-04-20T09:02:02.024Z,95747.59
2018-04-20T09:04:30.282Z,95740.26
2018-04-20T09:06:59.354Z,95735.52
2018-04-20T09:09:27.666Z,95738.25
2018-04-20T09:11:55.927Z,95745.16
2018-04-20T09:14:24.958Z,95740.83
2018-04-20T09:16:54.318Z,95736.61
2018-04-20T09:19:22.597Z,95737.70
2018-04-20T09:21:50.830Z,95739.44
2018-04-20T09:24:19.101Z,95734.77
2018-04-20T09:26:47.352Z,95730.88
2018-04-20T09:29:16.387Z,95728.58
2018-04-20T09:31:44.647Z,95724.64
2018-04-20T09:34:12.920Z,95731.45
2018-04-20T09:36:41.939Z,95726.20
2018-04-20T09:39:10.195Z,95724.33
2018-04-20T09:41:39.226Z,95725.43
2018-04-20T09:44:07.492Z,95723.06
2018-04-20T09:46:35.820Z,95718.43
2018-04-20T09:49:04.084Z,95720.92
2018-04-20T09:51:32.337Z,95721.95
2018-04-20T09:54:00.603Z,95718.45
2018-04-20T09:56:28.860Z,95712.84
2018-04-20T09:58:57.119Z,95722.79
2018-04-20T10:01:25.372Z,95716.25
2018-04-20T10:03:57.580Z,95709.17
2018-04-20T10:06:25.835Z,95717.16
2018-04-20T10:08:54.107Z,95712.41
2018-04-20T10:11:22.355Z,95715.28
2018-04-20T10:13:51.384Z,95713.17
2018-04-20T10:16:19.635Z,95714.68
2018-04-20T10:18:48.672Z,95717.50
2018-04-20T10:21:16.935Z,95713.68
2018-04-20T10:23:45.196Z,95707.15
2018-04-20T10:26:13.438Z,95706.20
2018-04-20T10:28:41.686Z,95706.77
2018-04-20T10:31:09.951Z,95709.69
2018-04-20T10:33:38.203Z,95698.77
2018-04-20T10:36:07.231Z,95705.53
2018-04-20T10:38:35.483Z,95706.11
2018-04-20T10:41:04.529Z,95698.67
2018-04-20T10:43:32.762Z,95705.19
2018-04-20T10:46:01.795Z,95699.23
2018-04-20T10:48:30.085Z,95697.53
2018-04-20T10:50:59.062Z,95702.08
2018-04-20T10:53:27.315Z,95701.70
2018-04-20T10:55:56.338Z,95691.52
2018-04-20T10:58:24.588Z,95690.14
2018-04-20T11:00:53.618Z,95681.34
2018-04-20T11:03:21.881Z,95674.87
2018-04-20T11:05:50.120Z,95685.17
2018-04-20T11:08:18.380Z,95681.28
2018-04-20T11:10:46.639Z,95680.09
2018-04-20T11:13:14.895Z,95670.66
2018-04-20T11:15:43.923Z,95676.67
2018-04-20T11:18:12.376Z,95671.19
2018-04-20T11:20:41.479Z,95665.75
2018-04-20T11:23:10.504Z,95654.59
2018-04-20T11:25:38.772Z,95655.14
2018-04-20T11:28:07.027Z,95655.23
2018-04-20T11:30:36.060Z,95655.49
2018-04-20T11:33:04.303Z,95656.35
2018-04-20T11:35:33.331Z,95654.48
2018-04-20T11:38:01.595Z,95649.59
2018-04-20T11:40:29.866Z,95655.36
2018-04-20T11:43:00.132Z,95644.02
2018-04-20T11:45:28.427Z,95641.84
2018-04-20T11:47:56.700Z,95647.89
2018-04-20T11:50:24.972Z,95641.41
2018-04-20T11:52:53.228Z,95645.06
2018-04-20T11:55:21.492Z,95645.27
2018-04-20T11:57:50.527Z,95638.44
2018-04-20T12:00:18.786Z,95638.56
2018-04-20T12:02:47.052Z,95639.30
2018-04-20T12:05:16.067Z,95639.16
2018-04-20T12:07:44.329Z,95634.91
2018-04-20T12:10:13.338Z,95632.28
2018-04-20T12:12:41.607Z,95628.59
2018-04-20T12:15:10.623Z,95634.77
2018-04-20T12:17:38.887Z,95631.58
2018-04-20T12:20:07.913Z,95628.71
2018-04-20T12:22:36.170Z,95623.90
2018-04-20T12:25:05.188Z,95624.59
2018-04-20T12:27:33.456Z,95621.05
2018-04-20T12:30:02.471Z,95612.68
2018-04-20T12:32:30.734Z,95614.42
2018-04-20T12:34:58.993Z,95611.63
2018-04-20T12:37:27.261Z,95616.97
2018-04-20T12:39:55.513Z,95606.86
2018-04-20T12:42:23.779Z,95609.22
2018-04-20T12:44:52.027Z,95607.86
2018-04-20T12:47:21.060Z,95604.16
2018-04-20T12:49:49.311Z,95597.48
2018-04-20T12:52:18.338Z,95599.29
2018-04-20T12:54:46.592Z,95599.80
2018-04-20T12:57:14.858Z,95594.03
2018-04-20T12:59:43.889Z,95594.29
2018-04-20T13:02:12.153Z,95587.63
2018-04-20T13:04:41.166Z,95583.56
2018-04-20T13:07:09.429Z,95580.55
2018-04-20T13:09:37.685Z,95584.14
2018-04-20T13:12:05.950Z,95579.28
2018-04-20T13:14:34.211Z,95574.69
2018-04-20T13:17:02.651Z,95574.70
2018-04-20T13:19:31.680Z,95568.39
2018-04-20T13:21:59.939Z,95560.30
2018-04-20T13:24:28.190Z,95558.91
2018-04-20T13:26:56.461Z,95551.80
2018-04-20T13:29:24.711Z,95555.41
2018-04-20T13:31:52.964Z,95555.12
2018-04-20T13:34:23.237Z,95555.53
2018-04-20T13:36:51.485Z,95549.33
2018-04-20T13:39:19.757Z,95542.98
2018-04-20T13:41:48.016Z,95545.52
2018-04-20T13:44:16.959Z,95543.09
2018-04-20T13:46:45.209Z,95541.61
2018-04-20T13:49:13.467Z,95540.75
2018-04-20T13:51:42.486Z,95538.89
2018-04-20T13:54:10.755Z,95537.83
2018-04-20T13:56:39.015Z,95532.52
2018-04-20T13:59:07.280Z,95536.37
2018-04-20T14:01:35.530Z,95527.97
2018-04-20T14:04:03.803Z,95523.12
2018-04-20T14:06:32.047Z,95523.42
2018-04-20T14:09:01.094Z,95515.15
2018-04-20T14:11:29.351Z,95518.11
2018-04-20T14:13:57.607Z,95508.94
2018-04-20T14:16:26.632Z,95512.05
2018-04-20T14:18:54.930Z,95516.91
2018-04-20T14:21:23.907Z,95509.39
2018-04-20T14:23:52.179Z,95508.19
2018-04-20T14:26:20.493Z,95513.56
2018-04-20T14:28:49.469Z,95502.28
2018-04-20T14:31:17.720Z,95502.81
2018-04-20T14:33:46.765Z,95502.81
2018-04-20T14:36:15.027Z,95504.50
2018-04-20T14:38:43.279Z,95500.68
2018-04-20T14:41:12.307Z,95499.39
2018-04-20T14:43:40.641Z,95502.92
2018-04-20T14:46:09.588Z,95494.31
2018-04-20T14:48:37.864Z,95497.98
2018-04-20T14:51:06.135Z,95493.95
2018-04-20T14:53:34.401Z,95491.11
2018-04-20T14:56:03.419Z,95496.64
2018-04-20T14:58:31.683Z,95489.53
2018-04-20T15:01:00.697Z,95489.36
2018-04-20T15:03:28.966Z,95487.86
2018-04-20T15:05:57.217Z,95481.89
2018-04-20T15:08:25.489Z,95482.45
2018-04-20T15:10:53.750Z,95471.34
2018-04-20T15:13:22.053Z,95477.02
2018-04-20T15:15:50.283Z,95473.89
2018-04-20T15:18:18.536Z,95460.30
2018-04-20T15:20:47.613Z,95474.95
2018-04-20T15:23:15.825Z,95473.67
2018-04-20T15:25:44.088Z,95461.88
2018-04-20T15:28:13.255Z,95474.77
2018-04-20T15:30:41.520Z,95467.16
2018-04-20T15:33:09.767Z,95465.52
2018-04-20T15:35:38.035Z,95468.77
2018-04-20T15:38:07.052Z,95466.22
2018-04-20T15:40:35.326Z,95458.98
2018-04-20T15:43:03.579Z,95466.45
2018-04-20T15:45:31.848Z,95466.75
2018-04-20T15:48:00.107Z,95460.94
2018-04-20T15:50:28.368Z,95461.34
2018-04-20T15:52:56.626Z,95455.47
2018-04-20T15:55:25.648Z,95457.46
2018-04-20T15:57:53.919Z,95458.47
2018-04-20T16:00:22.179Z,95451.56
2018-04-20T16:02:51.192Z,95455.01
2018-04-20T16:05:19.451Z,95456.85
2018-04-20T16:07:48.488Z,95444.07
2018-04-20T16:10:16.750Z,95445.25
2018-04-20T16:12:45.010Z,95446.08
2018-04-20T16:15:14.043Z,95441.75
2018-04-20T16:17:42.289Z,95442.72
2018-04-20T16:20:11.323Z,95438.80
2018-04-20T16:22:39.573Z,95437.23
2018-04-20T16:25:09.850Z,95428.48
2018-04-20T16:27:38.103Z,95437.29
2018-04-20T16:30:06.367Z,95433.69
2018-04-20T16:32:34.615Z,95434.67
2018-04-20T16:35:02.914Z,95423.03
2018-04-20T16:37:31.924Z,95426.25
2018-04-20T16:40:00.948Z,95424.76
2018-04-20T16:42:29.303Z,95428.20
2018-04-20T16:44:58.323Z,95426.14
2018-04-20T16:47:26.570Z,95425.15
2018-04-20T16:49:55.600Z,95424.09
2018-04-20T16:52:23.856Z,95419.91
2018-04-20T16:54:52.127Z,95422.65
2018-04-20T16:57:21.140Z,95424.52
2018-04-20T16:59:49.395Z,95420.84
2018-04-20T17:02:18.411Z,95427.52
2018-04-20T17:04:47.439Z,95422.13
2018-04-20T17:07:15.714Z,95428.70
2018-04-20T17:09:43.975Z,95420.89
2018-04-20T17:12:12.234Z,95422.22
2018-04-20T17:14:40.499Z,95425.52
2018-04-20T17:17:08.747Z,95421.12
2018-04-20T17:19:37.019Z,95423.92
2018-04-20T17:22:06.041Z,95414.59
2018-04-20T17:24:34.285Z,95421.31
2018-04-20T17:27:02.555Z,95420.83
2018-04-20T17:29:30.810Z,95417.64
2018-04-20T17:31:59.843Z,95427.84
2018-04-20T17:34:28.099Z,95424.53
2018-04-20T17:36:57.181Z,95423.48
2018-04-20T17:39:26.202Z,95426.66
2018-04-20T17:41:55.227Z,95427.91
2018-04-20T17:44:23.482Z,95435.44
2018-04-20T17:46:52.523Z,95429.83
2018-04-20T17:49:20.787Z,95425.76
2018-04-20T17:51:49.034Z,95428.63
2018-04-20T17:54:18.074Z,95434.48
2018-04-20T17:56:46.344Z,95435.29
2018-04-20T17:59:14.604Z,95435.23
2018-04-20T18:01:42.880Z,95438.88
2018-04-20T18:04:11.909Z,95433.48
2018-04-20T18:06:40.185Z,95443.41
2018-04-20T18:09:08.439Z,95443.40
2018-04-20T18:11:36.702Z,95446.94
2018-04-20T18:14:05.715Z,95448.98
2018-04-20T18:16:34.835Z,95451.91
2018-04-20T18:19:03.099Z,95450.45
2018-04-20T18:21:32.123Z,95456.19
2018-04-20T18:24:00.388Z,95451.54
2018-04-20T18:26:28.653Z,95456.16
2018-04-20T18:28:59.056Z,95459.41
2018-04-20T18:31:27.315Z,95457.72
2018-04-20T18:33:55.593Z,95458.39
2018-04-20T18:36:23.931Z,95461.55
2018-04-20T18:38:52.215Z,95460.28
2018-04-20T18:41:20.458Z,95464.28
2018-04-20T18:43:48.713Z,95469.08
2018-04-20T18:46:16.979Z,95469.08
2018-04-20T18:48:45.246Z,95472.78
2018-04-20T18:51:13.872Z,95474.21
2018-04-20T18:53:42.123Z,95475.82
2018-04-20T18:56:10.399Z,95480.05
2018-04-20T18:58:38.658Z,95480.47
2018-04-20T19:01:07.675Z,95492.64
2018-04-20T19:03:35.928Z,95486.50
2018-04-20T19:06:04.961Z,95481.69
2018-04-20T19:08:33.215Z,95488.32
2018-04-20T19:11:02.352Z,95492.88
2018-04-20T19:13:30.599Z,95487.99
2018-04-20T19:15:58.862Z,95490.88
2018-04-20T19:18:29.139Z,95495.33
2018-04-20T19:20:58.224Z,95489.50
2018-04-20T19:23:26.485Z,95494.45
2018-04-20T19:25:54.876Z,95496.26
2018-04-20T19:28:23.147Z,95502.73
2018-04-20T19:30:52.159Z,95498.39
2018-04-20T19:33:20.425Z,95502.41
2018-04-20T19:35:48.680Z,95497.23
2018-04-20T19:38:16.938Z,95504.36
2018-04-20T19:40:45.200Z,95504.95
2018-04-20T19:43:13.456Z,95502.00
2018-04-20T19:45:41.706Z,95503.89
2018-04-20T19:48:09.968Z,95499.90
2018-04-20T19:50:38.220Z,95509.02
2018-04-20T19:53:06.483Z,95507.00
2018-04-20T19:55:34.744Z,95504.23
2018-04-20T19:58:03.767Z,95499.78
2018-04-20T20:00:32.020Z,95498.17
2018-04-20T20:03:01.039Z,95500.55
2018-04-20T20:05:29.303Z,95501.77
2018-04-20T20:07:57.591Z,95505.88
2018-04-20T20:10:27.295Z,95503.27
2018-04-20T20:12:56.411Z,95493.28
2018-04-20T20:15:24.704Z,95492.69
2018-04-20T20:17:53.208Z,95504.19
2018-04-20T20:20:21.504Z,95507.16
2018-04-20T20:22:49.763Z,95502.33
2018-04-20T20:25:18.008Z,95495.91
2018-04-20T20:27:46.284Z,95496.00
2018-04-20T20:30:15.328Z,95495.42
2018-04-20T20:32:43.583Z,95493.34
2018-04-20T20:35:11.838Z,95491.64
2018-04-20T20:37:40.884Z,95491.74
2018-04-20T20:40:09.135Z,95491.63
2018-04-20T20:42:38.423Z,95490.07
2018-04-20T20:45:07.438Z,95493.23
2018-04-20T20:47:35.699Z,95493.17
2018-04-20T20:50:04.714Z,95489.95
2018-04-20T20:52:32.979Z,95487.23
2018-04-20T20:55:01.238Z,95481.30
2018-04-20T20:57:29.495Z,95483.31
2018-04-20T20:59:57.755Z,95480.19
2018-04-20T21:02:26.020Z,95480.28
2018-04-20T21:04:54.282Z,95486.71
2018-04-20T21:07:23.313Z,95487.90
2018-04-20T21:09:51.568Z,95492.69
2018-04-20T21:12:19.830Z,95491.91
2018-04-20T21:14:48.842Z,95489.09
2018-04-20T21:17:17.115Z,95493.78
2018-04-20T21:19:46.138Z,95493.13
2018-04-20T21:22:14.395Z,95493.67
2018-04-20T21:24:44.656Z,95495.26
2018-04-20T21:27:12.929Z,95494.02
2018-04-20T21:29:41.187Z,95490.22
2018-04-20T21:32:09.454Z,95488.19
2018-04-20T21:34:38.481Z,95490.33
2018-04-20T21:37:06.745Z,95484.09
2018-04-20T21:39:34.995Z,95484.43
2018-04-20T21:42:03.267Z,95480.23
2018-04-20T21:44:31.532Z,95478.38
2018-04-20T21:46:59.803Z,95482.48
2018-04-20T21:49:28.059Z,95480.90
2018-04-20T21:51:56.343Z,95476.23
2018-04-20T21:54:24.584Z,95476.41
2018-04-20T21:56:52.850Z,95474.66
2018-04-20T21:59:21.111Z,95472.21
2018-04-20T22:01:49.366Z,95475.06
2018-04-20T22:04:17.640Z,95477.35
2018-04-20T22:06:45.899Z,95473.41
2018-04-20T22:09:14.935Z,95479.43
2018-04-20T22:11:43.200Z,95478.94
2018-04-20T22:14:11.468Z,95484.20
2018-04-20T22:16:40.487Z,95484.92
2018-04-20T22:19:08.762Z,95477.88
2018-04-20T22:21:37.033Z,95483.53
2018-04-20T22:24:05.302Z,95480.66
2018-04-20T22:26:35.559Z,95472.11
2018-04-20T22:29:03.821Z,95468.93
2018-04-20T22:31:32.080Z,95471.86
2018-04-20T22:34:01.130Z,95469.08
2018-04-20T22:36:29.379Z,95468.52
2018-04-20T22:38:57.639Z,95470.39
2018-04-20T22:41:26.673Z,95470.56
2018-04-20T22:43:54.940Z,95467.34
2018-04-20T22:46:23.207Z,95476.52
2018-04-20T22:48:52.235Z,95471.11
2018-04-20T22:51:20.501Z,95469.80
2018-04-20T22:53:48.780Z,95467.17
2018-04-20T22:56:17.032Z,95471.54
2018-04-20T22:58:46.060Z,95472.77
2018-04-20T23:01:14.308Z,95474.88
2018-04-20T23:03:43.348Z,95470.11
2018-04-20T23:06:11.588Z,95470.75
2018-04-20T23:08:40.823Z,95467.70
2018-04-20T23:11:09.074Z,95467.92
2018-04-20T23:13:38.097Z,95468.52
2018-04-20T23:16:06.369Z,95468.49
2018-04-20T23:18:34.622Z,95467.94
2018-04-20T23:21:02.878Z,95461.02
2018-04-20T23:23:31.136Z,95460.27
2018-04-20T23:25:59.388Z,95456.52
2018-04-20T23:28:28.408Z,95457.88
2018-04-20T23:30:56.654Z,95455.98
2018-04-20T23:33:25.683Z,95453.73
2018-04-20T23:35:53.934Z,95449.77
2018-04-20T23:38:22.968Z,95449.83
2018-04-20T23:40:51.210Z,95439.55
2018-04-20T23:43:20.238Z,95442.39
2018-04-20T23:45:48.488Z,95444.05
2018-04-20T23:48:17.505Z,95443.19
2018-04-20T23:50:45.747Z,95443.19
2018-04-20T23:53:13.995Z,95443.09
2018-04-20T23:55:42.253Z,95439.88
2018-04-20T23:58:10.507Z,95436.88
